createdAt,value
2022-09-16T00:00:34.847Z,11.30
2022-09-16T00:03:04.863Z,11.26
2022-09-16T00:05:33.314Z,11.24
2022-09-16T00:08:01.836Z,11.25
2022-09-16T00:10:30.131Z,11.24
2022-09-16T00:12:58.550Z,11.23
2022-09-16T00:15:27.152Z,11.22
2022-09-16T00:17:56.174Z,11.22
2022-09-16T00:20:26.211Z,11.20
2022-09-16T00:22:55.303Z,11.22
2022-09-16T00:25:23.708Z,11.16
2022-09-16T00:27:52.583Z,11.18
2022-09-16T00:30:21.198Z,11.20
2022-09-16T00:32:49.713Z,11.18
2022-09-16T00:35:18.424Z,11.15
2022-09-16T00:37:50.178Z,11.08
2022-09-16T00:40:18.589Z,11.04
2022-09-16T00:42:47.073Z,11.01
2022-09-16T00:45:18.091Z,10.99
2022-09-16T00:47:48.613Z,10.96
2022-09-16T00:50:19.956Z,10.93
2022-09-16T00:52:49.732Z,10.94
2022-09-16T00:55:22.155Z,10.89
2022-09-16T00:57:50.758Z,10.81
2022-09-16T01:00:19.152Z,10.78
2022-09-16T01:02:47.770Z,10.71
2022-09-16T01:05:17.776Z,10.71
2022-09-16T01:07:46.734Z,10.68
2022-09-16T01:10:18.321Z,10.65
2022-09-16T01:12:47.856Z,10.63
2022-09-16T01:15:17.095Z,10.62
2022-09-16T01:17:52.758Z,10.59
2022-09-16T01:20:51.489Z,10.53
2022-09-16T01:23:43.053Z,10.51
2022-09-16T01:26:23.317Z,10.44
2022-09-16T01:29:21.189Z,10.38
2022-09-16T01:31:52.051Z,10.36
2022-09-16T01:34:27.070Z,10.36
2022-09-16T01:36:57.860Z,10.35
2022-09-16T01:39:31.566Z,10.33
2022-09-16T01:42:14.411Z,10.26
2022-09-16T01:44:46.453Z,10.24
2022-09-16T01:47:22.219Z,10.20
2022-09-16T01:49:57.038Z,10.24
2022-09-16T01:52:27.091Z,10.20
2022-09-16T01:54:57.308Z,10.17
2022-09-16T01:57:28.262Z,10.14
2022-09-16T01:59:59.119Z,10.19
2022-09-16T02:02:31.388Z,10.16
2022-09-16T02:05:00.852Z,10.17
2022-09-16T02:07:31.203Z,10.21
2022-09-16T02:10:04.823Z,10.24
2022-09-16T02:12:34.354Z,10.25
2022-09-16T02:15:10.268Z,10.27
2022-09-16T02:17:44.604Z,10.26
2022-09-16T02:20:15.710Z,10.29
2022-09-16T02:22:48.139Z,10.35
2022-09-16T02:25:19.811Z,10.38
2022-09-16T02:27:50.072Z,10.42
2022-09-16T02:30:24.113Z,10.47
2022-09-16T02:32:57.486Z,10.47
2022-09-16T02:35:27.182Z,10.49
2022-09-16T02:37:57.562Z,10.56
2022-09-16T02:40:32.710Z,10.57
2022-09-16T02:43:03.944Z,10.55
2022-09-16T02:45:47.771Z,10.56
2022-09-16T02:48:22.139Z,10.61
2022-09-16T02:50:55.096Z,10.65
2022-09-16T02:53:26.727Z,10.66
2022-09-16T02:55:58.438Z,10.70
2022-09-16T02:58:29.078Z,10.71
2022-09-16T03:01:02.506Z,10.74
2022-09-16T03:03:33.042Z,10.73
2022-09-16T03:06:19.144Z,10.71
2022-09-16T03:08:50.142Z,10.71
2022-09-16T03:11:35.727Z,10.73
2022-09-16T03:14:18.023Z,10.72
2022-09-16T03:16:48.847Z,10.70
2022-09-16T03:19:21.544Z,10.70
2022-09-16T03:21:57.707Z,10.66
2022-09-16T03:24:29.988Z,10.62
2022-09-16T03:27:00.835Z,10.67
2022-09-16T03:29:32.297Z,10.71
2022-09-16T03:32:06.262Z,10.69
2022-09-16T03:34:38.232Z,10.66
2022-09-16T03:37:08.223Z,10.66
2022-09-16T03:39:37.877Z,10.70
2022-09-16T03:42:11.486Z,10.68
2022-09-16T03:44:45.914Z,10.74
2022-09-16T03:47:14.549Z,10.78
2022-09-16T03:49:44.583Z,10.78
2022-09-16T03:52:13.567Z,10.78
2022-09-16T03:54:41.978Z,10.80
2022-09-16T03:57:11.610Z,10.80
2022-09-16T03:59:42.773Z,10.79
2022-09-16T04:02:12.758Z,10.80
2022-09-16T04:04:44.402Z,10.76
2022-09-16T04:07:14.433Z,10.82
2022-09-16T04:09:43.872Z,10.82
2022-09-16T04:12:12.967Z,10.84
2022-09-16T04:14:42.203Z,10.84
2022-09-16T04:17:13.133Z,10.84
2022-09-16T04:19:41.648Z,10.81
2022-09-16T04:22:14.227Z,10.85
2022-09-16T04:24:44.594Z,10.85
2022-09-16T04:27:14.240Z,10.90
2022-09-16T04:29:42.535Z,10.86
2022-09-16T04:32:11.028Z,10.90
2022-09-16T04:34:39.611Z,10.91
2022-09-16T04:37:08.075Z,10.94
2022-09-16T04:39:39.358Z,10.93
2022-09-16T04:42:08.223Z,10.93
2022-09-16T04:44:36.513Z,10.91
2022-09-16T04:47:04.843Z,10.90
2022-09-16T04:49:33.153Z,10.94
2022-09-16T04:52:01.813Z,10.91
2022-09-16T04:54:30.449Z,10.90
2022-09-16T04:57:01.666Z,10.87
2022-09-16T04:59:30.060Z,10.86
2022-09-16T05:01:58.659Z,10.90
2022-09-16T05:04:27.898Z,10.92
2022-09-16T05:06:57.389Z,10.91
2022-09-16T05:09:26.064Z,10.95
2022-09-16T05:11:54.251Z,10.97
2022-09-16T05:14:23.916Z,11.03
2022-09-16T05:16:54.909Z,11.07
2022-09-16T05:19:24.006Z,11.06
2022-09-16T05:21:55.367Z,11.07
2022-09-16T05:24:23.706Z,11.10
2022-09-16T05:26:52.627Z,11.14
2022-09-16T05:29:23.149Z,11.16
2022-09-16T05:31:52.921Z,11.19
2022-09-16T05:34:23.311Z,11.23
2022-09-16T05:36:54.113Z,11.22
2022-09-16T05:39:24.465Z,11.19
2022-09-16T05:41:56.031Z,11.16
2022-09-16T05:44:27.570Z,11.06
2022-09-16T05:46:57.785Z,11.10
2022-09-16T05:49:26.378Z,11.09
2022-09-16T05:51:58.081Z,11.11
2022-09-16T05:54:30.504Z,11.08
2022-09-16T05:57:02.209Z,11.08
2022-09-16T05:59:35.901Z,11.14
2022-09-16T06:02:09.574Z,11.16
2022-09-16T06:04:39.163Z,11.19
2022-09-16T06:07:10.485Z,11.25
2022-09-16T06:09:39.037Z,11.29
2022-09-16T06:12:10.304Z,11.35
2022-09-16T06:14:39.342Z,11.38
2022-09-16T06:17:09.593Z,11.39
2022-09-16T06:19:38.246Z,11.37
2022-09-16T06:22:06.531Z,11.43
2022-09-16T06:24:34.807Z,11.46
2022-09-16T06:27:03.345Z,11.49
2022-09-16T06:29:31.656Z,11.54
2022-09-16T06:32:00.006Z,11.59
2022-09-16T06:34:31.171Z,11.58
2022-09-16T06:37:00.020Z,11.61
2022-09-16T06:39:28.473Z,11.66
2022-09-16T06:41:58.432Z,11.66
2022-09-16T06:44:41.469Z,11.69
2022-09-16T06:47:10.841Z,11.77
2022-09-16T06:49:40.568Z,11.79
2022-09-16T06:52:11.964Z,11.74
2022-09-16T06:54:40.370Z,11.85
2022-09-16T06:57:12.307Z,11.94
2022-09-16T06:59:41.871Z,11.95
2022-09-16T07:02:11.352Z,11.95
2022-09-16T07:04:41.457Z,11.93
2022-09-16T07:07:10.844Z,12.00
2022-09-16T07:09:39.629Z,11.99
2022-09-16T07:12:08.238Z,12.01
2022-09-16T07:14:36.836Z,12.13
2022-09-16T07:17:05.788Z,12.29
2022-09-16T07:19:34.550Z,12.34
2022-09-16T07:22:04.330Z,12.31
2022-09-16T07:24:32.762Z,12.41
2022-09-16T07:27:01.464Z,12.48
2022-09-16T07:29:30.938Z,12.60
2022-09-16T07:32:00.631Z,12.67
2022-09-16T07:34:29.505Z,12.78
2022-09-16T07:36:58.073Z,12.77
2022-09-16T07:39:27.911Z,12.78
2022-09-16T07:41:57.569Z,12.81
2022-09-16T07:44:26.758Z,12.85
2022-09-16T07:46:55.042Z,12.92
2022-09-16T07:49:24.164Z,12.85
2022-09-16T07:52:02.292Z,12.83
2022-09-16T07:54:33.931Z,12.77
2022-09-16T07:57:04.183Z,12.59
2022-09-16T07:59:32.511Z,12.49
2022-09-16T08:02:01.714Z,12.45
2022-09-16T08:04:31.691Z,12.45
2022-09-16T08:07:02.619Z,12.44
2022-09-16T08:09:38.806Z,12.46
2022-09-16T08:12:14.749Z,12.50
2022-09-16T08:14:46.835Z,12.66
2022-09-16T08:17:16.553Z,12.94
2022-09-16T08:19:47.463Z,13.32
2022-09-16T08:22:16.969Z,13.41
2022-09-16T08:24:47.057Z,13.52
2022-09-16T08:27:15.894Z,13.57
2022-09-16T08:29:49.184Z,13.60
2022-09-16T08:32:19.346Z,13.78
2022-09-16T08:34:51.767Z,14.02
2022-09-16T08:37:20.256Z,14.17
2022-09-16T08:39:53.485Z,13.95
2022-09-16T08:42:34.382Z,13.85
2022-09-16T08:45:11.578Z,13.60
2022-09-16T08:47:49.766Z,13.62
2022-09-16T08:50:19.704Z,13.63
2022-09-16T08:52:48.830Z,13.70
2022-09-16T08:55:21.017Z,13.82
2022-09-16T08:57:54.203Z,14.05
2022-09-16T09:00:27.329Z,14.13
2022-09-16T09:02:57.527Z,14.24
2022-09-16T09:05:30.425Z,14.69
2022-09-16T09:08:10.817Z,14.91
2022-09-16T09:10:44.432Z,14.88
2022-09-16T09:13:19.946Z,14.84
2022-09-16T09:15:51.869Z,14.53
2022-09-16T09:18:27.966Z,14.38
2022-09-16T09:21:09.982Z,14.29
2022-09-16T09:23:46.896Z,14.05
2022-09-16T09:26:18.432Z,13.84
2022-09-16T09:29:11.907Z,13.96
2022-09-16T09:31:46.363Z,14.41
2022-09-16T09:34:23.849Z,14.91
2022-09-16T09:36:59.530Z,15.19
2022-09-16T09:39:38.591Z,15.36
2022-09-16T09:42:12.730Z,15.06
2022-09-16T09:44:58.466Z,15.12
2022-09-16T09:47:33.940Z,14.94
2022-09-16T09:50:11.382Z,14.28
2022-09-16T09:52:44.538Z,13.53
2022-09-16T09:55:16.855Z,12.98
2022-09-16T09:57:56.290Z,12.83
2022-09-16T10:00:25.111Z,12.74
2022-09-16T10:02:53.800Z,12.80
2022-09-16T10:05:24.060Z,12.85
2022-09-16T10:07:53.807Z,12.85
2022-09-16T10:10:23.953Z,12.98
2022-09-16T10:12:54.696Z,13.15
2022-09-16T10:15:24.490Z,13.28
2022-09-16T10:17:53.688Z,13.79
2022-09-16T10:20:28.191Z,14.32
2022-09-16T10:22:59.354Z,14.31
2022-09-16T10:25:33.511Z,14.13
2022-09-16T10:28:06.126Z,13.98
2022-09-16T10:30:44.903Z,13.95
2022-09-16T10:33:15.261Z,14.25
2022-09-16T10:35:55.303Z,14.81
2022-09-16T10:38:24.552Z,15.33
2022-09-16T10:40:53.760Z,15.64
2022-09-16T10:43:23.563Z,15.58
2022-09-16T10:45:53.884Z,16.08
2022-09-16T10:48:24.153Z,16.42
2022-09-16T10:50:56.620Z,16.68
2022-09-16T10:53:29.776Z,17.10
2022-09-16T10:55:59.418Z,17.34
2022-09-16T10:58:29.297Z,17.82
2022-09-16T11:01:08.483Z,18.28
2022-09-16T11:04:21.820Z,18.45
2022-09-16T11:07:01.709Z,18.73
2022-09-16T11:09:33.325Z,18.66
2022-09-16T11:12:19.412Z,18.98
2022-09-16T11:14:57.090Z,18.84
2022-09-16T11:17:39.209Z,18.58
2022-09-16T11:20:31.439Z,18.44
2022-09-16T11:23:03.951Z,17.87
2022-09-16T11:25:42.980Z,17.72
2022-09-16T11:28:35.399Z,17.23
2022-09-16T11:31:09.647Z,16.88
2022-09-16T11:33:42.279Z,16.14
2022-09-16T11:36:26.294Z,15.70
2022-09-16T11:39:01.974Z,14.88
2022-09-16T11:41:34.363Z,14.30
2022-09-16T11:44:18.646Z,14.28
2022-09-16T11:47:01.271Z,14.27
2022-09-16T11:49:47.882Z,14.36
2022-09-16T11:52:29.690Z,14.54
2022-09-16T11:55:22.046Z,14.86
2022-09-16T11:57:52.828Z,15.34
2022-09-16T12:00:26.666Z,15.65
2022-09-16T12:03:01.401Z,15.48
2022-09-16T12:05:33.276Z,15.49
2022-09-16T12:08:13.255Z,15.78
2022-09-16T12:10:45.048Z,16.02
2022-09-16T12:13:15.799Z,15.88
2022-09-16T12:15:47.279Z,15.85
2022-09-16T12:18:19.800Z,15.73
2022-09-16T12:20:52.067Z,15.70
2022-09-16T12:23:24.778Z,15.70
2022-09-16T12:26:01.811Z,15.54
2022-09-16T12:28:33.313Z,15.58
2022-09-16T12:31:07.868Z,15.52
2022-09-16T12:33:41.843Z,15.62
2022-09-16T12:36:13.015Z,15.54
2022-09-16T12:38:41.524Z,15.47
2022-09-16T12:41:31.589Z,15.45
2022-09-16T12:44:34.253Z,15.18
2022-09-16T12:47:25.496Z,14.74
2022-09-16T12:50:13.902Z,14.44
2022-09-16T12:53:05.668Z,14.16
2022-09-16T12:55:43.288Z,14.01
2022-09-16T12:58:42.692Z,14.11
2022-09-16T13:01:21.206Z,14.38
2022-09-16T13:03:51.617Z,14.77
2022-09-16T13:06:37.541Z,15.04
2022-09-16T13:09:18.283Z,15.08
2022-09-16T13:14:47.429Z,14.88
2022-09-16T13:17:17.254Z,14.61
2022-09-16T13:19:47.899Z,14.25
2022-09-16T13:22:22.386Z,13.93
2022-09-16T13:24:53.168Z,13.71
2022-09-16T13:27:27.760Z,13.48
2022-09-16T13:30:22.922Z,13.42
2022-09-16T13:33:00.251Z,13.35
2022-09-16T13:35:40.076Z,13.53
2022-09-16T13:38:41.449Z,13.80
2022-09-16T13:41:11.942Z,13.97
2022-09-16T13:43:52.344Z,14.17
2022-09-16T13:46:45.041Z,14.34
2022-09-16T13:49:21.971Z,14.48
2022-09-16T13:51:50.856Z,14.33
2022-09-16T13:54:28.631Z,14.24
2022-09-16T13:57:30.023Z,14.29
2022-09-16T14:00:13.634Z,14.16
2022-09-16T14:03:16.073Z,14.23
2022-09-16T14:06:09.500Z,14.08
2022-09-16T14:08:47.031Z,14.11
2022-09-16T14:11:19.165Z,14.02
2022-09-16T14:14:00.789Z,14.04
2022-09-16T14:16:38.758Z,14.12
2022-09-16T14:19:08.038Z,14.16
2022-09-16T14:21:38.619Z,14.21
2022-09-16T14:24:20.688Z,14.09
2022-09-16T14:26:54.241Z,13.97
2022-09-16T14:29:25.474Z,13.88
2022-09-16T14:31:58.078Z,13.93
2022-09-16T14:34:28.684Z,13.97
2022-09-16T14:36:57.802Z,13.97
2022-09-16T14:39:29.242Z,14.03
2022-09-16T14:42:03.545Z,14.24
2022-09-16T14:44:34.542Z,14.40
2022-09-16T14:47:09.141Z,14.61
2022-09-16T14:49:39.238Z,14.63
2022-09-16T14:52:18.696Z,14.59
2022-09-16T14:54:46.876Z,14.60
2022-09-16T14:57:18.849Z,14.66
2022-09-16T14:59:47.766Z,14.52
2022-09-16T15:02:18.308Z,14.50
2022-09-16T15:04:48.328Z,14.48
2022-09-16T15:07:18.419Z,14.50
2022-09-16T15:09:48.722Z,14.48
2022-09-16T15:12:31.922Z,14.45
2022-09-16T15:15:03.161Z,14.39
2022-09-16T15:17:32.034Z,14.23
2022-09-16T15:20:01.573Z,14.15
2022-09-16T15:22:43.564Z,14.06
2022-09-16T15:25:21.412Z,13.92
2022-09-16T15:27:51.472Z,13.84
2022-09-16T15:30:22.633Z,13.76
2022-09-16T15:32:50.970Z,13.68
2022-09-16T15:35:24.634Z,13.56
2022-09-16T15:37:53.538Z,13.43
2022-09-16T15:40:33.447Z,13.40
2022-09-16T15:43:29.613Z,13.31
2022-09-16T15:45:59.838Z,13.19
2022-09-16T15:48:31.387Z,13.16
2022-09-16T15:51:05.201Z,13.08
2022-09-16T15:53:43.215Z,12.99
2022-09-16T15:56:20.894Z,12.98
2022-09-16T15:58:51.479Z,12.89
2022-09-16T16:01:21.130Z,12.82
2022-09-16T16:03:55.573Z,12.83
2022-09-16T16:06:55.100Z,12.76
2022-09-16T16:09:40.689Z,12.61
2022-09-16T16:12:10.719Z,12.58
2022-09-16T16:14:41.083Z,12.57
2022-09-16T16:17:13.950Z,12.57
2022-09-16T16:19:44.085Z,12.51
2022-09-16T16:22:12.889Z,12.41
2022-09-16T16:24:41.777Z,12.37
2022-09-16T16:27:10.709Z,12.37
2022-09-16T16:29:42.287Z,12.41
2022-09-16T16:32:11.516Z,12.44
2022-09-16T16:34:44.259Z,12.45
2022-09-16T16:37:33.757Z,12.51
2022-09-16T16:40:07.498Z,12.52
2022-09-16T16:42:37.595Z,12.47
2022-09-16T16:45:10.047Z,12.48
2022-09-16T16:47:40.861Z,12.49
2022-09-16T16:50:16.001Z,12.47
2022-09-16T16:52:44.729Z,12.44
2022-09-16T16:55:12.988Z,12.43
2022-09-16T16:57:41.638Z,12.41
2022-09-16T17:00:16.575Z,12.42
2022-09-16T17:02:45.503Z,12.38
2022-09-16T17:05:19.851Z,12.26
2022-09-16T17:07:57.473Z,12.21
2022-09-16T17:10:29.661Z,12.13
2022-09-16T17:12:58.758Z,12.04
2022-09-16T17:15:34.162Z,12.00
2022-09-16T17:18:02.498Z,11.96
2022-09-16T17:20:31.167Z,11.91
2022-09-16T17:23:03.518Z,11.89
2022-09-16T17:25:35.295Z,11.88
2022-09-16T17:28:04.603Z,11.87
2022-09-16T17:30:37.360Z,11.79
2022-09-16T17:33:05.605Z,11.77
2022-09-16T17:35:33.827Z,11.76
2022-09-16T17:38:06.738Z,11.68
2022-09-16T17:40:35.611Z,11.58
2022-09-16T17:43:04.639Z,11.53
2022-09-16T17:45:37.560Z,11.48
2022-09-16T17:48:06.085Z,11.43
2022-09-16T17:50:34.496Z,11.39
2022-09-16T17:53:03.061Z,11.32
2022-09-16T17:55:31.423Z,11.25
2022-09-16T17:58:00.503Z,11.20
2022-09-16T18:00:29.248Z,11.11
2022-09-16T18:02:59.393Z,11.03
2022-09-16T18:05:30.224Z,10.96
2022-09-16T18:07:58.728Z,10.90
2022-09-16T18:10:27.584Z,10.87
2022-09-16T18:12:58.195Z,10.81
2022-09-16T18:15:26.715Z,10.74
2022-09-16T18:17:55.434Z,10.74
2022-09-16T18:20:25.423Z,10.76
2022-09-16T18:22:53.761Z,10.83
2022-09-16T18:25:22.707Z,10.87
2022-09-16T18:27:51.170Z,10.88
2022-09-16T18:30:19.882Z,10.89
2022-09-16T18:32:50.741Z,10.92
2022-09-16T18:35:20.023Z,10.94
2022-09-16T18:37:50.921Z,10.88
2022-09-16T18:40:21.860Z,10.86
2022-09-16T18:42:50.508Z,10.79
2022-09-16T18:45:18.907Z,10.67
2022-09-16T18:47:47.218Z,10.62
2022-09-16T18:50:17.071Z,10.53
2022-09-16T18:52:50.188Z,10.49
2022-09-16T18:55:20.179Z,10.44
2022-09-16T18:57:48.501Z,10.39
2022-09-16T19:00:18.130Z,10.31
2022-09-16T19:02:49.526Z,10.29
2022-09-16T19:05:19.693Z,10.23
2022-09-16T19:07:51.378Z,10.12
2022-09-16T19:10:23.733Z,10.12
2022-09-16T19:12:52.722Z,10.07
2022-09-16T19:15:22.456Z,10.02
2022-09-16T19:17:51.229Z,10.03
2022-09-16T19:20:21.772Z,10.04
2022-09-16T19:22:52.412Z,10.02
2022-09-16T19:25:23.337Z,10.00
2022-09-16T19:27:52.750Z,10.00
2022-09-16T19:30:26.770Z,9.95
2022-09-16T19:32:55.658Z,9.96
2022-09-16T19:35:28.665Z,9.98
2022-09-16T19:37:57.321Z,10.00
2022-09-16T19:40:27.314Z,10.01
2022-09-16T19:42:55.662Z,9.97
2022-09-16T19:45:27.784Z,9.91
2022-09-16T19:47:57.035Z,9.86
2022-09-16T19:50:25.708Z,9.80
2022-09-16T19:52:54.833Z,9.81
2022-09-16T19:55:23.186Z,9.81
2022-09-16T19:57:53.761Z,9.79
2022-09-16T20:00:29.414Z,9.76
2022-09-16T20:03:10.107Z,9.75
2022-09-16T20:05:38.455Z,9.70
2022-09-16T20:08:06.871Z,9.66
2022-09-16T20:10:35.632Z,9.70
2022-09-16T20:13:06.665Z,9.65
2022-09-16T20:15:35.845Z,9.62
2022-09-16T20:18:05.114Z,9.62
2022-09-16T20:20:34.304Z,9.61
2022-09-16T20:23:02.603Z,9.60
2022-09-16T20:25:31.957Z,9.60
2022-09-16T20:28:03.287Z,9.59
2022-09-16T20:30:33.171Z,9.58
2022-09-16T20:33:01.873Z,9.51
2022-09-16T20:35:31.750Z,9.48
2022-09-16T20:38:00.778Z,9.46
2022-09-16T20:40:29.115Z,9.51
2022-09-16T20:42:58.861Z,9.46
2022-09-16T20:45:27.196Z,9.47
2022-09-16T20:47:57.308Z,9.49
2022-09-16T20:50:25.798Z,9.48
2022-09-16T20:52:54.486Z,9.41
2022-09-16T20:55:23.205Z,9.39
2022-09-16T20:57:51.915Z,9.30
2022-09-16T21:00:22.544Z,9.32
2022-09-16T21:02:51.223Z,9.28
2022-09-16T21:05:21.139Z,9.23
2022-09-16T21:07:50.076Z,9.24
2022-09-16T21:10:21.696Z,9.19
2022-09-16T21:12:52.496Z,9.14
2022-09-16T21:15:22.893Z,9.09
2022-09-16T21:17:52.778Z,9.09
2022-09-16T21:20:22.510Z,9.08
2022-09-16T21:22:53.458Z,9.10
2022-09-16T21:25:24.928Z,8.97
2022-09-16T21:27:53.968Z,8.93
2022-09-16T21:30:23.616Z,8.92
2022-09-16T21:32:51.943Z,8.86
2022-09-16T21:35:23.935Z,8.86
2022-09-16T21:37:52.590Z,8.82
2022-09-16T21:40:23.013Z,8.80
2022-09-16T21:42:51.346Z,8.80
2022-09-16T21:45:23.478Z,8.73
2022-09-16T21:47:53.576Z,8.66
2022-09-16T21:50:23.714Z,8.64
2022-09-16T21:52:53.552Z,8.64
2022-09-16T21:55:22.833Z,8.61
2022-09-16T21:57:51.154Z,8.55
2022-09-16T22:00:19.548Z,8.53
2022-09-16T22:02:50.233Z,8.52
2022-09-16T22:05:19.812Z,8.49
2022-09-16T22:07:52.574Z,8.49
2022-09-16T22:10:21.472Z,8.46
2022-09-16T22:12:50.007Z,8.42
2022-09-16T22:15:19.857Z,8.37
2022-09-16T22:17:51.914Z,8.39
2022-09-16T22:20:20.522Z,8.37
2022-09-16T22:22:50.408Z,8.35
2022-09-16T22:25:19.096Z,8.42
2022-09-16T22:27:55.099Z,8.41
2022-09-16T22:30:26.652Z,8.31
2022-09-16T22:32:56.717Z,8.28
2022-09-16T22:35:25.088Z,8.28
2022-09-16T22:37:54.819Z,8.28
2022-09-16T22:40:27.334Z,8.28
2022-09-16T22:42:57.278Z,8.28
2022-09-16T22:45:27.325Z,8.32
2022-09-16T22:47:55.827Z,8.30
2022-09-16T22:50:24.616Z,8.29
2022-09-16T22:52:59.218Z,8.27
2022-09-16T22:55:28.528Z,8.30
2022-09-16T22:57:59.046Z,8.22
2022-09-16T23:00:28.406Z,8.13
2022-09-16T23:02:56.898Z,8.14
2022-09-16T23:05:26.387Z,8.10
2022-09-16T23:07:57.220Z,8.06
2022-09-16T23:10:28.683Z,8.08
2022-09-16T23:13:02.352Z,8.09
2022-09-16T23:15:35.082Z,8.08
2022-09-16T23:18:12.872Z,8.10
2022-09-16T23:20:42.694Z,8.08
2022-09-16T23:23:12.690Z,8.09
2022-09-16T23:25:41.842Z,8.04
2022-09-16T23:28:10.868Z,8.02
2022-09-16T23:30:42.875Z,7.95
2022-09-16T23:33:13.575Z,7.92
2022-09-16T23:35:52.534Z,7.91
2022-09-16T23:38:22.605Z,7.89
2022-09-16T23:40:58.639Z,7.93
2022-09-16T23:43:27.521Z,7.94
2022-09-16T23:45:56.505Z,7.98
2022-09-16T23:48:25.661Z,7.95
2022-09-16T23:50:57.950Z,7.94
2022-09-16T23:53:29.939Z,7.92
2022-09-16T23:56:01.407Z,7.94
2022-09-16T23:58:31.034Z,7.98
